Bob Sikes Airport Crestview US
ICAO: KCEW
IATA: CEW
Category: Medium
Scheduled Services: No

Elevation: 213 ft
TransAlt. 18000 ft.

Airport Communications:
EGLIN APP/DEP:124.05
ASOS:119.275
GAINESVILLE RDO:122
CTAF/UNICOM:122.95

KCEW Zoom In..

If you have problems with the map follow the link
https://www.worldairports.se/pages/airport.php?
ICAO=KCEW

Runways:

(A) RW 17 length 8004 ft width 150 ft
ILS 111.90 / hdg 171

(B) RW 35 length 8004 ft width 150 ft
---- / hdg 351

Location; KCEW
Day. 18 / Time. 01.53 Zulu
* Altimeter: 29.91
* Temperature: 21° c. 69.8°f.
* Wind from: 190° Speed 07 kn.
Dewpoint: 20° c.
Visibility: 5 Statute Miles.
Clouds: Overcast 300 ft.
Conditions: Mist.

KCEW 180153Z AUTO 19007KT 5SM BR OVC003 21/20 A2991 RMK AO2 SLP125 T02110200 $


Wind From 190°
Speed 07 kn.

 
 
jpsmedia.com for Web Design worldairports.se 2019   terms of use